Time;durP1;ratioP1;P1;durP2;ratioP2;P2;SDS_P1;SDS_P2;PMS_P1;PMS_P2;Temp;Humidity;BMP_temperature;BMP_pressure;BME280_temperature;BME280_humidity;BME280_pressure;Samples;Min_cycle;Max_cycle;Signal;HPM_P1;HPM_P2
2022/12/20 00:01:21;;;;;;;4.50;3.63;;;8.90;99.90;;;;;;5051163;28;20144;-73
2022/12/20 00:03:52;;;;;;;6.55;3.53;;;8.90;99.90;;;;;;5052054;28;20051;-73
2022/12/20 00:06:18;;;;;;;4.13;3.67;;;8.90;99.90;;;;;;5051693;28;20021;-73
2022/12/20 00:08:44;;;;;;;4.90;3.78;;;8.90;99.90;;;;;;5051026;28;20434;-73
2022/12/20 00:11:10;;;;;;;6.43;3.72;;;8.90;99.90;;;;;;5044728;28;20533;-74
2022/12/20 00:13:37;;;;;;;4.03;3.20;;;8.80;99.90;;;;;;5048083;28;20029;-73
2022/12/20 00:16:05;;;;;;;4.80;4.03;;;8.80;99.90;;;;;;5054280;28;20477;-73
2022/12/20 00:18:31;;;;;;;3.72;3.35;;;8.80;99.90;;;;;;5049259;28;20072;-72
2022/12/20 00:21:00;;;;;;;7.00;4.28;;;8.80;99.90;;;;;;5045947;28;20025;-73
2022/12/20 00:23:26;;;;;;;5.37;3.83;;;8.80;99.90;;;;;;5054378;28;20485;-73
2022/12/20 00:25:52;;;;;;;6.68;4.13;;;8.80;99.90;;;;;;5055043;28;20108;-73
2022/12/20 00:28:17;;;;;;;7.00;4.47;;;8.90;99.90;;;;;;5055007;28;20025;-73
2022/12/20 00:30:43;;;;;;;3.90;3.45;;;8.90;99.90;;;;;;5054377;28;20419;-73
2022/12/20 00:33:09;;;;;;;3.88;3.25;;;9.00;99.90;;;;;;5054590;28;20080;-74
2022/12/20 00:35:34;;;;;;;5.47;3.45;;;8.90;99.90;;;;;;5054984;28;20025;-73
2022/12/20 00:38:00;;;;;;;7.45;3.63;;;9.00;99.90;;;;;;5053713;28;20025;-74
2022/12/20 00:40:25;;;;;;;6.55;3.50;;;9.00;99.90;;;;;;5054935;28;20043;-74
2022/12/20 00:42:51;;;;;;;4.15;3.75;;;9.10;99.90;;;;;;5040554;28;20496;-72
2022/12/20 00:45:16;;;;;;;4.75;3.65;;;9.20;99.90;;;;;;5054485;28;20028;-72
2022/12/20 00:47:42;;;;;;;4.30;3.38;;;9.20;99.90;;;;;;5054649;28;20017;-73
2022/12/20 00:50:08;;;;;;;4.40;3.05;;;9.20;99.90;;;;;;5053894;28;20045;-72
2022/12/20 00:52:33;;;;;;;6.15;3.45;;;9.20;99.90;;;;;;5054645;28;20021;-72
2022/12/20 00:54:59;;;;;;;7.10;4.32;;;9.20;99.90;;;;;;5047515;28;20482;-72
2022/12/20 00:57:24;;;;;;;6.05;3.25;;;9.20;99.90;;;;;;5046980;28;20448;-73
2022/12/20 00:59:50;;;;;;;3.63;3.33;;;9.20;99.90;;;;;;5054136;28;20024;-74
2022/12/20 01:02:16;;;;;;;3.38;3.08;;;9.20;99.90;;;;;;5055144;28;20017;-73
2022/12/20 01:04:41;;;;;;;5.68;3.35;;;9.20;99.90;;;;;;5054347;28;20032;-73
2022/12/20 01:07:07;;;;;;;9.18;3.55;;;9.30;99.90;;;;;;5055391;28;20412;-73
2022/12/20 01:09:33;;;;;;;4.68;3.33;;;9.30;99.90;;;;;;5054834;28;20037;-73
2022/12/20 01:11:58;;;;;;;7.72;4.13;;;9.30;99.90;;;;;;5046645;28;20021;-72
2022/12/20 01:14:24;;;;;;;5.18;3.08;;;9.30;99.90;;;;;;5047246;28;20037;-74
2022/12/20 01:16:49;;;;;;;4.90;3.58;;;9.30;99.90;;;;;;5054172;28;20021;-74
2022/12/20 01:19:17;;;;;;;5.70;3.42;;;9.20;99.90;;;;;;5053599;28;20128;-73
2022/12/20 01:21:45;;;;;;;5.38;3.90;;;9.20;99.90;;;;;;5054196;28;20465;-72
2022/12/20 01:24:13;;;;;;;4.15;3.78;;;9.20;99.90;;;;;;5053887;28;20028;-72
2022/12/20 01:26:39;;;;;;;6.88;3.35;;;9.30;99.90;;;;;;5052977;28;20112;-72
2022/12/20 01:29:04;;;;;;;8.70;4.07;;;9.30;99.90;;;;;;5053678;28;20115;-72
2022/12/20 01:31:30;;;;;;;5.80;3.67;;;9.30;99.90;;;;;;5054194;28;20028;-72
2022/12/20 01:33:56;;;;;;;5.03;3.83;;;9.30;99.90;;;;;;5053487;28;20420;-72
2022/12/20 01:36:28;;;;;;;10.43;3.63;;;9.20;99.90;;;;;;5054630;28;20021;-72
2022/12/20 01:39:02;;;;;;;7.10;3.88;;;9.10;99.90;;;;;;5054250;28;20032;-73
2022/12/20 01:41:29;;;;;;;5.03;3.75;;;9.10;99.90;;;;;;5053264;28;20028;-73
2022/12/20 01:44:25;;;;;;;5.40;4.00;;;9.20;99.90;;;;;;5053757;28;20167;-73
2022/12/20 01:46:51;;;;;;;4.93;3.80;;;9.10;99.90;;;;;;5052661;28;20029;-73
2022/12/20 01:49:31;;;;;;;7.18;3.80;;;9.10;99.90;;;;;;5053285;28;20040;-73
2022/12/20 01:51:56;;;;;;;5.05;3.97;;;9.00;99.90;;;;;;5053465;28;20036;-72
2022/12/20 01:54:39;;;;;;;8.52;4.15;;;9.00;99.90;;;;;;5052876;28;20470;-72
2022/12/20 01:57:11;;;;;;;7.35;3.58;;;9.00;99.90;;;;;;5053758;28;20070;-73
2022/12/20 01:59:39;;;;;;;4.18;3.67;;;8.90;99.90;;;;;;5050752;28;20021;-74
2022/12/20 02:02:09;;;;;;;8.85;4.18;;;9.00;99.90;;;;;;5042196;28;20059;-73
2022/12/20 02:04:34;;;;;;;10.13;4.20;;;9.00;99.90;;;;;;5053659;28;20477;-73
2022/12/20 02:07:02;;;;;;;7.72;4.00;;;9.10;99.90;;;;;;5053764;28;20029;-72
2022/12/20 02:09:31;;;;;;;6.13;3.50;;;9.10;99.90;;;;;;5052711;28;20501;-73
2022/12/20 02:12:06;;;;;;;4.43;3.90;;;9.10;99.90;;;;;;5053127;28;20057;-73
2022/12/20 02:15:08;;;;;;;5.38;4.10;;;9.10;99.90;;;;;;5052325;28;20040;-73
2022/12/20 02:17:42;;;;;;;5.85;3.83;;;9.20;99.90;;;;;;5018745;28;20029;-72
2022/12/20 02:20:42;;;;;;;7.18;3.63;;;9.20;99.90;;;;;;5052612;28;20108;-73
2022/12/20 02:23:29;;;;;;;5.30;3.85;;;9.20;99.90;;;;;;5052203;28;20025;-72
2022/12/20 02:26:14;;;;;;;5.55;4.00;;;9.20;99.90;;;;;;5024039;28;20020;-72
2022/12/20 02:29:17;;;;;;;4.82;3.80;;;9.20;99.90;;;;;;5032194;28;20025;-73
2022/12/20 02:31:47;;;;;;;4.50;3.67;;;9.20;99.90;;;;;;5023866;28;20493;-72
2022/12/20 02:34:15;;;;;;;5.20;4.50;;;9.30;99.90;;;;;;5032009;28;20041;-71
2022/12/20 02:36:41;;;;;;;6.10;3.80;;;9.30;99.90;;;;;;5031923;28;20370;-73
2022/12/20 02:39:08;;;;;;;7.30;3.63;;;9.30;99.90;;;;;;5032511;28;20024;-72
2022/12/20 02:41:44;;;;;;;6.32;3.47;;;9.30;99.90;;;;;;5032689;28;20100;-72
2022/12/20 02:47:01;;;;;;;6.20;3.83;;;9.20;99.90;;;;;;5032756;28;20036;-72
2022/12/20 02:49:32;;;;;;;9.27;4.22;;;9.20;99.90;;;;;;5032626;28;20044;-72
2022/12/20 02:52:00;;;;;;;4.90;3.28;;;9.10;99.90;;;;;;5031707;28;20026;-72
2022/12/20 02:54:27;;;;;;;5.55;3.63;;;9.00;99.90;;;;;;5034616;28;20116;-73
2022/12/20 02:57:19;;;;;;;4.07;3.67;;;9.00;99.90;;;;;;5035719;28;20444;-73
2022/12/20 02:59:54;;;;;;;8.48;3.88;;;9.00;99.90;;;;;;5036746;28;20029;-74
2022/12/20 03:02:19;;;;;;;4.57;4.10;;;9.00;99.90;;;;;;5039097;28;20082;-72
2022/12/20 03:04:47;;;;;;;5.32;3.92;;;9.00;99.90;;;;;;5038232;28;20045;-73
2022/12/20 03:07:13;;;;;;;7.97;3.78;;;9.00;99.90;;;;;;5036060;28;20033;-72
2022/12/20 03:09:41;;;;;;;5.40;3.22;;;9.10;99.90;;;;;;5032536;28;20132;-73
2022/12/20 03:12:10;;;;;;;3.80;3.30;;;9.00;99.90;;;;;;5031338;28;20029;-73
2022/12/20 03:14:36;;;;;;;9.57;3.35;;;9.00;99.90;;;;;;5032437;28;20087;-73
2022/12/20 03:17:02;;;;;;;4.95;3.65;;;9.10;99.90;;;;;;5032248;28;20095;-74
2022/12/20 03:19:28;;;;;;;6.43;3.45;;;9.10;99.90;;;;;;5031418;28;20026;-73
2022/12/20 03:21:54;;;;;;;5.70;4.00;;;9.20;99.90;;;;;;5032053;28;20029;-73
2022/12/20 03:24:20;;;;;;;4.60;3.47;;;9.10;99.90;;;;;;5032136;28;20113;-73
2022/12/20 03:26:46;;;;;;;3.90;3.50;;;9.20;99.90;;;;;;5031903;28;20485;-73
2022/12/20 03:29:11;;;;;;;3.63;3.33;;;9.30;99.90;;;;;;5032130;28;20065;-73
2022/12/20 03:31:37;;;;;;;5.70;3.25;;;9.20;99.90;;;;;;5032351;28;20025;-73
2022/12/20 03:34:03;;;;;;;5.15;3.95;;;9.20;99.90;;;;;;5031154;28;20064;-73
2022/12/20 03:36:29;;;;;;;5.40;3.33;;;9.20;99.90;;;;;;5032605;28;20100;-71
2022/12/20 03:38:55;;;;;;;5.07;3.88;;;9.20;99.90;;;;;;5031322;28;20359;-74
2022/12/20 03:41:21;;;;;;;4.00;3.28;;;9.30;99.90;;;;;;5017939;28;20478;-73
2022/12/20 03:43:48;;;;;;;6.70;3.75;;;9.20;99.90;;;;;;5032274;28;20108;-73
2022/12/20 03:46:14;;;;;;;4.82;3.55;;;9.30;99.90;;;;;;5031768;28;20029;-73
2022/12/20 03:48:40;;;;;;;3.97;2.90;;;9.40;99.90;;;;;;5035914;28;20028;-74
2022/12/20 03:51:06;;;;;;;3.58;3.25;;;9.50;99.90;;;;;;5035416;28;20033;-73
2022/12/20 03:53:32;;;;;;;4.53;2.90;;;9.60;99.90;;;;;;5035343;28;20017;-73
2022/12/20 03:55:57;;;;;;;4.95;3.85;;;9.70;99.90;;;;;;5035552;28;20378;-74
2022/12/20 03:58:23;;;;;;;9.55;3.55;;;9.70;99.90;;;;;;5035571;28;20026;-74
2022/12/20 04:00:49;;;;;;;4.15;2.97;;;9.70;99.90;;;;;;5035389;28;20096;-73
2022/12/20 04:03:14;;;;;;;5.20;3.20;;;9.80;99.90;;;;;;5035322;28;20120;-73
2022/12/20 04:05:41;;;;;;;5.38;3.38;;;9.80;99.90;;;;;;5035585;28;20076;-73
2022/12/20 04:08:06;;;;;;;5.18;2.97;;;9.80;99.90;;;;;;5034899;28;20025;-73
2022/12/20 04:11:14;;;;;;;4.82;3.53;;;9.90;99.90;;;;;;5035513;28;20030;-73
2022/12/20 04:13:19;;;;;;;4.38;2.90;;;9.90;99.90;;;;;;5023227;28;20022;-73
2022/12/20 04:15:45;;;;;;;3.47;2.90;;;9.90;99.90;;;;;;5033878;28;20040;-73
2022/12/20 04:18:10;;;;;;;7.03;3.70;;;10.00;99.90;;;;;;5035712;28;20423;-74
2022/12/20 04:20:36;;;;;;;4.55;3.47;;;10.00;99.90;;;;;;5035054;28;20371;-73
2022/12/20 04:23:01;;;;;;;4.63;3.25;;;9.90;99.90;;;;;;5034578;28;20025;-73
2022/12/20 04:25:27;;;;;;;8.05;3.33;;;10.00;99.90;;;;;;5035088;28;20432;-73
2022/12/20 04:27:52;;;;;;;4.00;3.40;;;10.10;99.90;;;;;;5034853;28;20022;-73
2022/12/20 04:30:18;;;;;;;5.65;3.40;;;10.10;99.90;;;;;;5034447;28;20049;-73
2022/12/20 04:32:44;;;;;;;5.88;3.70;;;10.10;99.90;;;;;;5034913;28;20509;-73
2022/12/20 04:35:10;;;;;;;4.82;3.58;;;10.10;99.90;;;;;;5034406;28;20025;-72
2022/12/20 04:37:35;;;;;;;5.15;3.35;;;10.10;99.90;;;;;;5035051;28;20101;-73
2022/12/20 04:40:01;;;;;;;6.00;3.42;;;10.10;99.90;;;;;;5034657;28;20028;-72
2022/12/20 04:42:26;;;;;;;4.40;3.60;;;10.10;99.90;;;;;;5034172;28;20024;-73
2022/12/20 04:44:52;;;;;;;7.15;3.67;;;10.10;99.90;;;;;;5034392;28;20030;-72
2022/12/20 04:47:18;;;;;;;4.72;4.32;;;10.10;99.90;;;;;;5035499;28;20052;-73
2022/12/20 04:49:43;;;;;;;4.65;4.13;;;10.30;99.90;;;;;;5034565;28;20038;-73
2022/12/20 04:54:53;;;;;;;5.07;3.63;;;10.00;99.90;;;;;;5034953;28;20044;-72
2022/12/20 04:57:20;;;;;;;7.45;3.90;;;10.00;99.90;;;;;;5033425;28;20393;-72
2022/12/20 04:59:45;;;;;;;5.75;4.00;;;10.00;99.90;;;;;;5034668;28;20075;-73
2022/12/20 05:02:11;;;;;;;4.15;3.55;;;10.00;99.90;;;;;;5034215;28;20025;-73
2022/12/20 05:04:37;;;;;;;8.35;3.90;;;10.00;99.90;;;;;;5034244;28;20060;-72
2022/12/20 05:07:02;;;;;;;7.13;4.65;;;10.00;99.90;;;;;;5034318;28;20470;-72
2022/12/20 05:09:28;;;;;;;4.80;4.28;;;10.00;99.90;;;;;;5034416;28;20037;-72
2022/12/20 05:11:53;;;;;;;8.35;4.50;;;10.00;99.90;;;;;;5033402;28;20025;-73
2022/12/20 05:14:19;;;;;;;4.40;3.83;;;10.10;99.90;;;;;;5034550;28;20496;-72
2022/12/20 05:16:44;;;;;;;5.03;4.50;;;10.00;99.90;;;;;;5034162;28;20075;-72
2022/12/20 05:19:10;;;;;;;5.50;3.70;;;10.00;99.90;;;;;;5033079;28;20017;-72
2022/12/20 05:27:04;;;;;;;4.68;4.28;;;10.00;99.90;;;;;;5034058;28;20492;-72
2022/12/20 05:29:29;;;;;;;4.88;3.65;;;9.90;99.90;;;;;;5034185;28;20037;-71
2022/12/20 05:31:55;;;;;;;5.60;4.13;;;9.90;99.90;;;;;;5028086;28;20466;-71
2022/12/20 05:34:21;;;;;;;5.93;4.22;;;9.90;99.90;;;;;;5016523;28;20696;-73
2022/12/20 05:36:46;;;;;;;4.55;3.85;;;9.90;99.90;;;;;;5015633;28;20426;-72
2022/12/20 05:39:12;;;;;;;7.25;4.32;;;9.80;99.90;;;;;;5012529;28;20116;-72
2022/12/20 05:41:39;;;;;;;5.13;3.72;;;9.80;99.90;;;;;;5031710;28;20393;-72
2022/12/20 05:44:05;;;;;;;7.72;4.00;;;9.80;99.90;;;;;;5033264;28;20028;-72
2022/12/20 05:46:34;;;;;;;5.15;4.03;;;9.70;99.90;;;;;;5031922;28;20545;-72
2022/12/20 05:48:59;;;;;;;5.13;3.83;;;9.80;99.90;;;;;;5032005;28;20470;-72
2022/12/20 05:51:25;;;;;;;4.72;4.28;;;9.80;99.90;;;;;;5032563;28;20024;-72
2022/12/20 05:53:51;;;;;;;4.18;3.72;;;9.80;99.90;;;;;;5031663;28;20042;-72
2022/12/20 05:56:16;;;;;;;4.25;3.95;;;9.80;99.90;;;;;;5032512;28;21509;-72
2022/12/20 05:58:42;;;;;;;4.57;4.10;;;9.80;99.90;;;;;;5032464;28;20025;-72
2022/12/20 06:01:09;;;;;;;5.70;4.00;;;9.80;99.90;;;;;;5031474;28;20385;-72
2022/12/20 06:03:35;;;;;;;4.80;3.83;;;9.80;99.90;;;;;;5034688;28;20041;-72
2022/12/20 06:06:01;;;;;;;5.60;4.03;;;9.70;99.90;;;;;;5032251;28;20490;-71
2022/12/20 06:08:26;;;;;;;6.18;4.07;;;9.80;99.90;;;;;;5031192;28;20108;-73
2022/12/20 06:10:52;;;;;;;5.60;3.88;;;9.70;99.90;;;;;;5030693;28;20090;-71
2022/12/20 06:13:18;;;;;;;6.55;3.90;;;9.70;99.90;;;;;;5029451;28;20497;-72
2022/12/20 06:15:44;;;;;;;6.10;3.78;;;9.80;99.90;;;;;;5029776;28;20094;-72
2022/12/20 06:18:10;;;;;;;12.25;3.60;;;9.80;99.90;;;;;;5030220;28;20025;-73
2022/12/20 06:20:36;;;;;;;11.20;3.25;;;9.70;99.90;;;;;;5030174;28;20027;-72
2022/12/20 06:23:03;;;;;;;4.15;3.35;;;9.70;99.90;;;;;;5030014;28;20033;-74
2022/12/20 06:25:29;;;;;;;5.30;3.75;;;9.70;99.90;;;;;;5031347;28;20038;-73
2022/12/20 06:27:55;;;;;;;8.13;3.17;;;9.80;99.90;;;;;;5030878;28;20029;-74
2022/12/20 06:30:20;;;;;;;7.60;3.35;;;9.80;99.90;;;;;;5032202;28;20401;-73
2022/12/20 06:32:46;;;;;;;5.00;3.63;;;9.80;99.90;;;;;;5032506;28;20045;-71
2022/12/20 06:35:14;;;;;;;3.72;3.42;;;9.80;99.90;;;;;;5032978;28;20768;-72
2022/12/20 06:37:41;;;;;;;5.38;3.33;;;9.80;99.90;;;;;;5031590;28;20032;-73
2022/12/20 06:40:11;;;;;;;4.35;3.35;;;9.80;99.90;;;;;;5030445;28;20052;-73
2022/12/20 06:42:38;;;;;;;6.95;3.53;;;9.80;99.90;;;;;;5028619;28;20052;-72
2022/12/20 06:45:06;;;;;;;7.43;3.85;;;9.80;99.90;;;;;;5029932;28;20075;-72
2022/12/20 06:47:32;;;;;;;5.68;3.05;;;9.90;99.90;;;;;;5029988;28;20551;-73
2022/12/20 06:49:57;;;;;;;3.58;2.88;;;9.90;99.90;;;;;;5028431;28;20037;-72
2022/12/20 06:52:23;;;;;;;5.75;2.83;;;9.90;99.90;;;;;;5030208;28;20815;-72
2022/12/20 06:54:49;;;;;;;4.85;2.78;;;9.90;99.90;;;;;;5030109;28;20027;-73
2022/12/20 06:57:14;;;;;;;8.52;3.30;;;10.00;99.90;;;;;;5029034;28;20060;-73
2022/12/20 06:59:40;;;;;;;6.05;3.60;;;10.00;99.90;;;;;;5030077;28;20029;-73
2022/12/20 07:02:06;;;;;;;6.78;3.13;;;10.00;99.90;;;;;;5029352;28;20029;-73
2022/12/20 07:04:31;;;;;;;4.75;2.83;;;10.00;99.90;;;;;;5024106;28;20060;-72
2022/12/20 07:06:57;;;;;;;4.75;2.75;;;10.10;99.90;;;;;;5030456;28;20024;-72
2022/12/20 07:09:23;;;;;;;4.88;2.95;;;10.10;99.90;;;;;;5029761;28;20041;-72
2022/12/20 07:11:48;;;;;;;3.45;2.70;;;10.10;99.90;;;;;;5028839;28;20029;-72
2022/12/20 07:14:14;;;;;;;4.35;2.72;;;10.10;99.90;;;;;;5030140;28;20065;-72
2022/12/20 07:16:42;;;;;;;3.25;2.58;;;10.20;99.90;;;;;;5030122;28;20122;-72
2022/12/20 07:19:10;;;;;;;6.90;2.85;;;10.20;99.90;;;;;;5029906;28;20390;-72
2022/12/20 07:21:36;;;;;;;3.33;2.63;;;10.20;99.90;;;;;;5029816;28;20057;-72
2022/12/20 07:24:02;;;;;;;6.40;2.17;;;10.20;99.90;;;;;;5027495;28;20385;-72
2022/12/20 07:26:28;;;;;;;3.10;2.55;;;10.30;99.90;;;;;;5027578;28;20112;-73
2022/12/20 07:28:54;;;;;;;5.28;2.67;;;10.30;99.90;;;;;;5028029;28;20028;-72
2022/12/20 07:31:19;;;;;;;6.85;3.15;;;10.30;99.90;;;;;;5028604;28;20486;-73
2022/12/20 07:33:45;;;;;;;3.05;2.67;;;10.30;99.90;;;;;;5028826;28;20050;-72
2022/12/20 07:36:12;;;;;;;3.85;2.65;;;10.30;99.90;;;;;;5028155;28;20529;-72
2022/12/20 07:38:38;;;;;;;8.60;2.80;;;10.30;99.90;;;;;;5029299;28;20028;-72
2022/12/20 07:41:15;;;;;;;7.78;2.67;;;10.20;99.90;;;;;;5028474;28;20033;-72
2022/12/20 07:43:41;;;;;;;4.03;2.78;;;10.20;99.90;;;;;;5029412;28;20478;-72
2022/12/20 07:46:10;;;;;;;6.32;2.92;;;10.20;99.90;;;;;;5026202;28;20033;-72
2022/12/20 07:48:36;;;;;;;2.85;2.55;;;10.20;99.90;;;;;;5031667;28;20021;-73
2022/12/20 07:51:09;;;;;;;3.65;2.72;;;10.20;99.90;;;;;;5028855;28;20056;-72
2022/12/20 07:53:39;;;;;;;5.88;2.95;;;10.20;99.90;;;;;;5030528;28;20025;-72
2022/12/20 07:56:07;;;;;;;4.82;3.40;;;10.20;99.90;;;;;;5028887;28;20057;-72
2022/12/20 07:58:34;;;;;;;5.05;2.80;;;10.20;99.90;;;;;;5029024;28;20029;-72
2022/12/20 08:01:01;;;;;;;6.22;2.90;;;10.10;99.90;;;;;;5027938;28;20018;-73
2022/12/20 08:03:31;;;;;;;9.40;3.30;;;10.10;99.90;;;;;;5027559;28;20022;-73
2022/12/20 08:06:02;;;;;;;4.18;2.83;;;10.10;99.90;;;;;;5029298;28;20021;-73
2022/12/20 08:08:30;;;;;;;5.80;3.40;;;10.10;99.90;;;;;;5028362;28;20029;-75
2022/12/20 08:10:56;;;;;;;7.28;3.40;;;10.10;99.90;;;;;;5028787;28;20075;-73
2022/12/20 08:13:31;;;;;;;3.33;2.33;;;10.10;99.90;;;;;;5027686;28;20053;-72
2022/12/20 08:15:59;;;;;;;2.80;2.60;;;10.10;99.90;;;;;;5026444;28;20018;-73
2022/12/20 08:18:25;;;;;;;7.30;2.70;;;10.20;99.90;;;;;;5027528;28;20474;-73
2022/12/20 08:20:50;;;;;;;4.68;2.78;;;10.20;99.90;;;;;;5029187;28;20078;-72
2022/12/20 08:23:16;;;;;;;7.28;2.72;;;10.10;99.90;;;;;;5027730;28;20045;-72
2022/12/20 08:25:42;;;;;;;4.47;2.35;;;10.20;99.90;;;;;;5027590;28;20033;-73
2022/12/20 08:28:08;;;;;;;4.50;2.60;;;10.20;99.90;;;;;;5026682;28;20382;-73
2022/12/20 08:30:33;;;;;;;4.75;2.53;;;10.20;99.90;;;;;;5028545;28;20393;-74
2022/12/20 08:32:59;;;;;;;3.08;2.53;;;10.20;99.90;;;;;;5030000;28;20038;-73
2022/12/20 08:35:24;;;;;;;4.00;2.33;;;10.20;99.90;;;;;;5028345;28;20099;-72
2022/12/20 08:37:51;;;;;;;4.93;2.70;;;10.20;99.90;;;;;;5024377;28;20029;-75
2022/12/20 08:40:18;;;;;;;4.10;2.83;;;10.20;99.90;;;;;;5028197;28;20375;-73
2022/12/20 08:42:43;;;;;;;3.22;2.40;;;10.20;99.90;;;;;;5022497;28;20096;-74
2022/12/20 08:45:09;;;;;;;3.85;2.63;;;10.30;99.90;;;;;;5024795;28;20482;-72
2022/12/20 08:47:35;;;;;;;4.68;2.33;;;10.30;99.90;;;;;;5022323;28;20488;-73
2022/12/20 08:50:01;;;;;;;6.07;2.92;;;10.30;99.90;;;;;;5023037;28;20041;-72
2022/12/20 08:52:28;;;;;;;5.70;2.95;;;10.30;99.90;;;;;;5024632;28;20454;-73
2022/12/20 08:54:54;;;;;;;3.50;2.33;;;10.30;99.90;;;;;;5023874;28;20018;-72
2022/12/20 08:57:19;;;;;;;3.67;2.83;;;10.30;99.90;;;;;;5028329;28;20021;-73
2022/12/20 08:59:45;;;;;;;6.53;2.90;;;10.30;99.90;;;;;;5031942;28;20402;-73
2022/12/20 09:02:11;;;;;;;5.35;2.53;;;10.30;99.90;;;;;;5025206;28;20034;-74
2022/12/20 09:04:37;;;;;;;7.32;2.83;;;10.30;99.90;;;;;;5027600;28;20452;-73
2022/12/20 09:07:03;;;;;;;7.00;2.42;;;10.30;99.90;;;;;;5031161;28;20029;-73
2022/12/20 09:09:28;;;;;;;4.95;2.75;;;10.30;99.90;;;;;;5030380;28;20045;-72
2022/12/20 09:11:54;;;;;;;3.20;2.90;;;10.20;99.90;;;;;;5028691;28;20108;-73
2022/12/20 09:14:20;;;;;;;6.97;3.08;;;10.20;99.90;;;;;;5026013;28;20038;-74
2022/12/20 09:16:46;;;;;;;4.65;3.20;;;10.20;99.90;;;;;;5030764;28;20021;-73
2022/12/20 09:19:15;;;;;;;3.47;3.10;;;10.20;99.90;;;;;;5031501;28;20036;-74
2022/12/20 09:21:41;;;;;;;7.45;2.90;;;10.20;99.90;;;;;;5028054;28;20040;-73
2022/12/20 09:24:07;;;;;;;8.13;2.80;;;10.20;99.90;;;;;;5030358;28;20025;-71
2022/12/20 09:26:36;;;;;;;3.75;2.65;;;10.30;99.90;;;;;;5031000;28;20119;-72
2022/12/20 09:29:02;;;;;;;3.17;2.83;;;10.20;99.90;;;;;;5033066;28;20025;-73
2022/12/20 09:31:28;;;;;;;7.10;3.17;;;10.30;99.90;;;;;;5029990;28;20396;-73
2022/12/20 09:33:56;;;;;;;4.25;2.58;;;10.30;99.90;;;;;;5034135;28;20022;-71
2022/12/20 09:36:23;;;;;;;5.10;3.10;;;10.30;99.90;;;;;;5028961;28;20088;-72
2022/12/20 09:38:50;;;;;;;7.78;3.13;;;10.20;99.90;;;;;;5028726;28;20033;-72
2022/12/20 09:41:28;;;;;;;5.15;2.90;;;10.30;99.90;;;;;;5027979;28;20504;-73
2022/12/20 09:43:54;;;;;;;4.80;3.08;;;10.30;99.90;;;;;;5028138;28;20030;-74
2022/12/20 09:46:22;;;;;;;9.65;2.80;;;10.30;99.90;;;;;;5023630;28;20029;-72
2022/12/20 09:48:48;;;;;;;3.65;3.20;;;10.30;99.90;;;;;;5031351;28;20037;-71
2022/12/20 09:51:44;;;;;;;6.93;2.50;;;10.30;99.90;;;;;;5025704;28;20034;-72
2022/12/20 09:54:26;;;;;;;4.43;2.97;;;10.30;99.90;;;;;;5007540;28;20084;-71
2022/12/20 09:57:06;;;;;;;5.72;2.88;;;10.40;99.90;;;;;;5030711;28;20022;-72
2022/12/20 09:59:34;;;;;;;3.72;2.72;;;10.40;99.90;;;;;;5030527;28;20107;-71
2022/12/20 10:02:00;;;;;;;4.75;3.30;;;10.40;99.90;;;;;;5030508;28;20095;-72
2022/12/20 10:04:28;;;;;;;7.03;3.10;;;10.50;99.90;;;;;;5034275;28;20042;-71
2022/12/20 10:07:25;;;;;;;7.68;3.13;;;10.50;99.90;;;;;;5021909;28;20037;-72
2022/12/20 10:10:03;;;;;;;6.28;3.05;;;10.50;99.90;;;;;;5026236;28;20121;-71
2022/12/20 10:12:47;;;;;;;7.28;2.90;;;10.50;99.90;;;;;;5032134;28;20029;-71
2022/12/20 10:15:19;;;;;;;3.85;2.72;;;10.60;99.90;;;;;;5032216;28;20596;-71
2022/12/20 10:17:59;;;;;;;6.07;3.03;;;10.60;99.90;;;;;;5031510;28;20021;-71
2022/12/20 10:20:30;;;;;;;;;;;10.60;99.90;;;;;;5026428;28;20572;-71
2022/12/20 10:23:22;;;;;;;7.28;3.65;;;10.50;99.90;;;;;;5026478;28;20574;-71
2022/12/20 10:25:53;;;;;;;7.20;3.15;;;10.50;99.90;;;;;;5010173;28;20381;-72
2022/12/20 10:28:20;;;;;;;;;;;10.60;99.90;;;;;;5028488;28;20052;-72
2022/12/20 10:30:45;;;;;;;10.90;3.15;;;10.50;99.90;;;;;;5028544;28;19952;-72
2022/12/20 10:33:19;;;;;;;3.30;3.00;;;10.50;99.90;;;;;;5028076;28;20517;-70
2022/12/20 10:35:45;;;;;;;7.53;3.72;;;10.60;99.90;;;;;;5028069;28;20116;-71
2022/12/20 10:38:12;;;;;;;8.88;3.50;;;10.50;99.90;;;;;;5030186;28;20117;-72
2022/12/20 10:40:42;;;;;;;4.05;3.28;;;10.50;99.90;;;;;;5029732;28;20132;-71
2022/12/20 10:43:17;;;;;;;6.87;3.33;;;10.60;99.90;;;;;;5028791;28;20501;-71
2022/12/20 10:45:44;;;;;;;5.28;3.35;;;10.60;99.90;;;;;;5031146;28;20026;-71
2022/12/20 10:48:37;;;;;;;6.82;3.50;;;10.50;99.90;;;;;;5029399;28;20056;-71
2022/12/20 10:51:11;;;;;;;11.90;4.97;;;10.60;99.90;;;;;;5028498;28;20033;-70
2022/12/20 10:53:49;;;;;;;7.15;3.70;;;10.60;99.90;;;;;;5029443;28;20049;-71
2022/12/20 10:56:18;;;;;;;9.52;3.65;;;10.60;99.90;;;;;;5029339;28;20117;-72
2022/12/20 10:58:55;;;;;;;4.40;3.15;;;10.60;99.90;;;;;;5029661;28;20033;-72
2022/12/20 11:01:25;;;;;;;5.03;3.63;;;10.60;99.90;;;;;;5028889;28;20029;-70
2022/12/20 11:03:58;;;;;;;4.83;3.67;;;10.60;99.90;;;;;;5027753;28;20516;-72
2022/12/20 11:06:37;;;;;;;4.55;3.30;;;10.50;99.90;;;;;;5027169;28;20029;-71
2022/12/20 11:09:36;;;;;;;8.50;3.28;;;10.50;99.90;;;;;;5030513;28;20025;-70
2022/12/20 11:12:15;;;;;;;4.78;3.28;;;10.50;99.90;;;;;;5020732;28;20029;-70
2022/12/20 11:14:45;;;;;;;6.68;3.30;;;10.50;99.90;;;;;;5028978;28;20029;-70
2022/12/20 11:17:21;;;;;;;4.55;3.30;;;10.50;99.90;;;;;;5029158;28;20556;-70
2022/12/20 11:19:58;;;;;;;4.93;3.80;;;10.50;99.90;;;;;;5029971;28;20033;-69
2022/12/20 11:22:43;;;;;;;6.25;3.70;;;10.50;99.90;;;;;;5030640;28;20040;-70
2022/12/20 11:25:31;;;;;;;5.63;3.92;;;10.50;99.90;;;;;;5027618;28;20453;-69
2022/12/20 11:28:29;;;;;;;6.15;3.67;;;10.50;99.90;;;;;;5028817;28;20021;-70
2022/12/20 11:31:06;;;;;;;6.82;3.80;;;10.50;99.90;;;;;;5028780;28;20033;-70
2022/12/20 11:33:44;;;;;;;12.82;4.15;;;10.60;99.90;;;;;;5027917;28;20045;-70
2022/12/20 11:36:37;;;;;;;6.43;3.92;;;10.60;99.90;;;;;;5029734;28;20075;-70
2022/12/20 11:39:14;;;;;;;4.57;3.75;;;10.60;99.90;;;;;;5027991;28;20018;-71
2022/12/20 11:42:17;;;;;;;5.50;4.22;;;10.60;99.90;;;;;;5029132;28;20030;-71
2022/12/20 11:44:52;;;;;;;5.43;4.35;;;10.60;99.90;;;;;;5027237;28;20034;-70
2022/12/20 11:47:54;;;;;;;6.90;4.35;;;10.60;99.90;;;;;;5028363;28;20030;-70
2022/12/20 11:50:37;;;;;;;5.50;4.05;;;10.60;99.90;;;;;;5029543;28;20044;-70
2022/12/20 11:53:30;;;;;;;6.32;4.30;;;10.60;99.90;;;;;;5028477;28;20033;-71
2022/12/20 11:56:06;;;;;;;8.65;4.70;;;10.60;99.90;;;;;;5029126;28;20055;-70
2022/12/20 11:58:56;;;;;;;6.68;4.88;;;10.60;99.90;;;;;;5019658;28;20453;-70
2022/12/20 12:01:30;;;;;;;6.00;4.45;;;10.60;99.90;;;;;;5006889;28;20029;-70
2022/12/20 12:04:10;;;;;;;10.10;5.18;;;10.60;99.90;;;;;;5028551;28;20389;-70
2022/12/20 12:07:05;;;;;;;5.05;4.53;;;10.60;99.90;;;;;;5026460;28;20038;-71
2022/12/20 12:09:44;;;;;;;5.57;5.00;;;10.60;99.90;;;;;;5008251;28;20042;-71
2022/12/20 12:12:32;;;;;;;6.00;5.10;;;10.60;99.90;;;;;;5031741;28;20051;-70
2022/12/20 12:15:14;;;;;;;5.72;5.22;;;10.60;99.90;;;;;;5028368;28;20080;-71
2022/12/20 12:18:01;;;;;;;5.47;5.03;;;10.60;99.90;;;;;;5024821;28;20021;-70
2022/12/20 12:20:45;;;;;;;6.63;5.28;;;10.60;99.90;;;;;;5034768;28;20496;-71
2022/12/20 12:23:41;;;;;;;7.00;5.68;;;10.60;99.90;;;;;;5033120;28;20102;-71
2022/12/20 12:26:23;;;;;;;5.30;4.90;;;10.60;99.90;;;;;;5032353;28;20033;-72
2022/12/20 12:28:54;;;;;;;6.35;5.05;;;10.60;99.90;;;;;;5022059;28;20075;-71
2022/12/20 12:31:40;;;;;;;5.95;5.35;;;10.60;99.90;;;;;;5033321;28;20124;-71
2022/12/20 12:34:31;;;;;;;7.65;5.90;;;10.60;99.90;;;;;;5032968;28;20096;-72
2022/12/20 12:37:18;;;;;;;7.82;5.70;;;10.70;99.90;;;;;;5020519;28;20033;-71
2022/12/20 12:40:20;;;;;;;8.40;5.75;;;10.60;99.90;;;;;;5033108;28;20025;-71
2022/12/20 12:42:54;;;;;;;8.10;5.13;;;10.60;99.90;;;;;;5032796;28;20037;-71
2022/12/20 12:45:23;;;;;;;6.07;5.50;;;10.60;99.90;;;;;;5019450;28;20029;-71
2022/12/20 12:47:55;;;;;;;5.97;5.18;;;10.60;99.90;;;;;;5032766;28;20056;-71
2022/12/20 12:50:33;;;;;;;6.78;5.18;;;10.60;99.90;;;;;;5033243;28;20041;-71
2022/12/20 12:53:07;;;;;;;6.55;5.20;;;10.60;99.90;;;;;;5033555;28;20049;-71
2022/12/20 12:55:38;;;;;;;6.10;5.53;;;10.50;99.90;;;;;;5034904;28;20051;-71
2022/12/20 12:58:22;;;;;;;8.60;6.15;;;10.60;99.90;;;;;;5035063;28;20036;-71
2022/12/20 13:00:58;;;;;;;7.00;5.88;;;10.60;99.90;;;;;;5022660;28;20021;-71
2022/12/20 13:03:40;;;;;;;7.32;5.65;;;10.60;99.90;;;;;;5048609;28;20025;-71
2022/12/20 13:06:27;;;;;;;8.32;5.78;;;10.60;99.90;;;;;;5034723;28;20116;-71
2022/12/20 13:08:58;;;;;;;6.72;5.68;;;10.60;99.90;;;;;;5033492;28;20033;-71
2022/12/20 13:11:36;;;;;;;7.80;6.25;;;10.60;99.90;;;;;;5034619;28;20041;-71
2022/12/20 13:14:16;;;;;;;7.05;5.88;;;10.60;99.90;;;;;;5033997;28;20377;-71
2022/12/20 13:16:46;;;;;;;8.48;6.88;;;10.50;99.90;;;;;;5033984;28;20025;-71
2022/12/20 13:19:24;;;;;;;6.85;6.25;;;10.60;99.90;;;;;;5033831;28;20040;-71